VLVT/VTE METAR and TAF weather

Enter ICAO airport designator
Station Type Date Time Source
VLVT METAR 2020/12/06 01:30 UTC NOAA

VLVT 060130Z 18002KT 8000 FEW200 19/13 Q1019 NOSIG


Station Type Date Time Source
VLVT Decoded METAR 2020/12/06 01:30 UTC NOAA

Vientiane, Laos (VLVT) 17-57N 102-34E 171M
Dec 05, 2020 - 08:30 PM EST / 2020.12.06 0130 UTC
Wind: from the S (180 degrees) at 2 MPH (2 KT):0
Visibility: 4 mile(s):0
Sky conditions: mostly clear
Temperature: 66 F (19 C)
Dew Point: 55 F (13 C)
Relative Humidity: 68%
Pressure (altimeter): 30.09 in. Hg (1019 hPa)
ob: VLVT 060130Z 18002KT 8000 FEW200 19/13 Q1019 NOSIG
cycle: 1

Station Type Date Time Source
VLVT TAF 2020/12/05 06:39 UTC NOAA

TAF TAF VLVT 050500Z 0506/0606 04006KT 8000 FEW020 FEW050

Example: see airport list